Time;durP1;ratioP1;P1;durP2;ratioP2;P2;SDS_P1;SDS_P2;PMS_P1;PMS_P2;Temp;Humidity;BMP_temperature;BMP_pressure;BME280_temperature;BME280_humidity;BME280_pressure;Samples;Min_cycle;Max_cycle;Signal;HPM_P1;HPM_P2
2023/04/07 00:02:16;;;;;;;3.55;3.20;;;9.60;69.40;;;;;;5073997;28;20036;-60
2023/04/07 00:04:41;;;;;;;3.15;2.85;;;9.60;69.50;;;;;;5072163;28;20033;-58
2023/04/07 00:07:07;;;;;;;3.33;2.50;;;9.60;69.60;;;;;;5073480;28;20367;-62
2023/04/07 00:09:33;;;;;;;3.60;3.28;;;9.60;69.60;;;;;;5066020;28;20081;-62
2023/04/07 00:12:01;;;;;;;3.17;2.88;;;9.50;69.60;;;;;;5073286;28;20097;-57
2023/04/07 00:14:27;;;;;;;3.20;2.90;;;9.60;69.90;;;;;;5076388;28;20055;-59
2023/04/07 00:16:53;;;;;;;3.35;2.90;;;9.50;69.90;;;;;;5064099;28;20032;-61
2023/04/07 00:19:18;;;;;;;3.10;2.80;;;9.50;70.00;;;;;;5072667;28;20037;-62
2023/04/07 00:21:44;;;;;;;3.30;3.00;;;9.50;69.90;;;;;;5074951;28;20113;-64
2023/04/07 00:24:10;;;;;;;3.20;2.90;;;9.50;69.90;;;;;;5074081;28;20675;-64
2023/04/07 00:26:36;;;;;;;3.03;2.78;;;9.40;70.00;;;;;;5074653;28;20052;-63
2023/04/07 00:29:01;;;;;;;3.13;2.83;;;9.40;70.00;;;;;;5083223;28;20089;-62
2023/04/07 00:31:27;;;;;;;3.28;2.97;;;9.40;70.20;;;;;;5070286;28;20060;-67
2023/04/07 00:33:54;;;;;;;3.25;2.95;;;9.40;70.20;;;;;;5068255;28;20028;-67
2023/04/07 00:36:20;;;;;;;3.65;2.80;;;9.30;70.40;;;;;;5066395;28;20430;-62
2023/04/07 00:38:46;;;;;;;3.20;2.90;;;9.30;70.50;;;;;;5067954;28;20032;-62
2023/04/07 00:41:12;;;;;;;3.38;3.08;;;9.30;70.70;;;;;;5072595;28;20086;-62
2023/04/07 00:43:37;;;;;;;3.47;3.00;;;9.30;70.80;;;;;;5064984;28;20044;-61
2023/04/07 00:46:03;;;;;;;4.28;3.20;;;9.20;70.80;;;;;;5075170;28;20425;-69
2023/04/07 00:48:30;;;;;;;3.20;2.90;;;9.20;70.90;;;;;;5070524;28;20031;-66
2023/04/07 00:50:56;;;;;;;3.50;3.20;;;9.20;70.80;;;;;;5072571;28;20453;-67
2023/04/07 00:53:21;;;;;;;4.60;3.42;;;9.20;70.90;;;;;;5072637;28;20028;-68
2023/04/07 00:55:47;;;;;;;5.53;3.92;;;9.20;71.00;;;;;;5070525;28;20460;-55
2023/04/07 00:58:13;;;;;;;6.70;4.78;;;9.20;71.10;;;;;;5072010;28;20028;-57
2023/04/07 01:00:52;;;;;;;9.00;5.13;;;9.20;71.20;;;;;;5071654;28;20507;-67
2023/04/07 01:03:32;;;;;;;7.60;5.55;;;9.20;71.30;;;;;;5074270;28;20102;-66
2023/04/07 01:06:00;;;;;;;6.80;5.00;;;9.20;71.20;;;;;;5071237;28;20032;-65
2023/04/07 01:08:32;;;;;;;6.90;4.90;;;9.20;71.30;;;;;;5071804;28;20032;-66
2023/04/07 01:11:16;;;;;;;5.80;4.68;;;9.20;71.20;;;;;;5071313;28;20368;-55
2023/04/07 01:13:44;;;;;;;5.65;4.60;;;9.20;71.20;;;;;;5071801;28;20413;-54
2023/04/07 01:16:14;;;;;;;7.07;5.50;;;9.20;71.20;;;;;;5071749;28;20025;-62
2023/04/07 01:18:42;;;;;;;8.48;5.38;;;9.20;71.30;;;;;;5071735;28;20067;-61
2023/04/07 01:21:13;;;;;;;6.85;5.35;;;9.10;71.20;;;;;;5071797;28;20112;-61
2023/04/07 01:24:07;;;;;;;7.40;5.38;;;9.10;71.30;;;;;;5070447;28;20106;-60
2023/04/07 01:26:33;;;;;;;7.07;5.35;;;9.10;71.40;;;;;;5059269;28;20028;-61
2023/04/07 01:29:23;;;;;;;9.68;5.85;;;9.10;71.50;;;;;;5071173;28;20093;-61
2023/04/07 01:31:49;;;;;;;7.78;6.05;;;9.10;71.70;;;;;;5071737;28;20028;-64
2023/04/07 01:34:17;;;;;;;9.45;6.40;;;9.10;71.80;;;;;;5068607;28;20052;-64
2023/04/07 01:36:44;;;;;;;8.88;6.45;;;9.00;71.80;;;;;;5071605;28;20029;-58
2023/04/07 01:39:11;;;;;;;12.30;7.47;;;9.10;71.90;;;;;;5067072;28;20036;-56
2023/04/07 01:41:38;;;;;;;12.30;7.03;;;9.00;71.90;;;;;;5062623;28;20025;-64
2023/04/07 01:44:06;;;;;;;11.60;6.93;;;9.00;71.90;;;;;;5062963;28;20495;-66
2023/04/07 01:46:33;;;;;;;12.18;7.57;;;9.00;72.00;;;;;;5074299;28;20029;-54
2023/04/07 01:49:00;;;;;;;12.45;8.32;;;9.00;72.00;;;;;;5071361;28;20032;-54
2023/04/07 01:51:27;;;;;;;13.65;8.30;;;9.00;72.10;;;;;;5057207;28;20032;-63
2023/04/07 01:53:54;;;;;;;12.15;8.02;;;9.00;72.10;;;;;;5074392;28;20032;-69
2023/04/07 01:56:19;;;;;;;11.85;8.25;;;9.00;72.10;;;;;;5073604;28;20033;-62
2023/04/07 01:58:45;;;;;;;14.80;8.88;;;9.00;72.20;;;;;;5063760;28;20045;-62
2023/04/07 02:01:12;;;;;;;13.43;7.82;;;8.90;72.10;;;;;;5072038;28;20042;-59
2023/04/07 02:03:43;;;;;;;12.07;7.68;;;8.90;72.20;;;;;;5071812;28;20027;-54
2023/04/07 02:06:11;;;;;;;;;;;8.90;72.20;;;;;;5070014;28;20036;-59
2023/04/07 02:08:41;;;;;;;10.85;6.75;;;8.90;72.20;;;;;;5063925;28;19904;-62
2023/04/07 02:11:09;;;;;;;11.80;7.40;;;8.80;72.30;;;;;;5077514;28;20116;-64
2023/04/07 02:13:37;;;;;;;11.95;7.72;;;8.80;72.30;;;;;;5069859;28;20060;-64
2023/04/07 02:16:05;;;;;;;11.80;8.32;;;8.80;72.40;;;;;;5071167;28;20020;-56
2023/04/07 02:18:31;;;;;;;13.05;8.75;;;8.70;72.50;;;;;;5070504;28;20363;-55
2023/04/07 02:20:58;;;;;;;12.98;8.70;;;8.80;72.60;;;;;;5069372;28;20017;-68
2023/04/07 02:23:24;;;;;;;13.27;9.05;;;8.80;72.60;;;;;;5065489;28;20406;-66
2023/04/07 02:25:50;;;;;;;12.35;8.20;;;8.70;72.70;;;;;;5068721;28;20033;-68
2023/04/07 02:28:15;;;;;;;12.38;9.15;;;8.70;72.80;;;;;;5076830;28;20073;-66
2023/04/07 02:30:41;;;;;;;11.50;8.27;;;8.70;73.10;;;;;;5075659;28;20036;-66
2023/04/07 02:33:07;;;;;;;12.20;7.65;;;8.70;73.10;;;;;;5069956;28;20066;-69
2023/04/07 02:35:32;;;;;;;12.40;7.65;;;8.70;73.10;;;;;;5070647;28;20037;-58
2023/04/07 02:37:58;;;;;;;12.55;7.90;;;8.70;73.20;;;;;;5071019;28;20499;-58
2023/04/07 02:40:24;;;;;;;10.65;7.55;;;8.70;73.20;;;;;;5068173;28;20040;-67
2023/04/07 02:42:49;;;;;;;12.85;8.30;;;8.70;73.80;;;;;;5065172;28;20119;-68
2023/04/07 02:45:15;;;;;;;12.63;8.73;;;8.70;73.20;;;;;;5069609;28;20028;-67
2023/04/07 02:47:41;;;;;;;10.93;7.20;;;8.60;73.30;;;;;;5075694;28;20039;-67
2023/04/07 02:50:07;;;;;;;10.63;7.35;;;8.60;73.40;;;;;;5070719;28;20502;-64
2023/04/07 02:52:32;;;;;;;10.35;7.30;;;8.50;73.40;;;;;;5070140;28;20064;-67
2023/04/07 02:54:58;;;;;;;11.50;8.20;;;8.50;73.50;;;;;;5069780;28;20506;-68
2023/04/07 02:57:24;;;;;;;9.73;7.07;;;8.50;73.80;;;;;;5068786;28;20384;-61
2023/04/07 02:59:49;;;;;;;10.82;7.30;;;8.50;73.80;;;;;;5069574;28;20890;-61
2023/04/07 03:02:15;;;;;;;9.90;7.40;;;8.50;73.90;;;;;;5070853;28;20494;-62
2023/04/07 03:04:41;;;;;;;9.07;7.40;;;8.40;73.90;;;;;;5068042;28;20032;-62
2023/04/07 03:07:06;;;;;;;12.13;7.53;;;8.40;74.00;;;;;;5070704;28;20021;-62
2023/04/07 03:09:32;;;;;;;8.48;6.68;;;8.40;74.30;;;;;;5071139;28;20127;-62
2023/04/07 03:11:58;;;;;;;10.05;7.65;;;8.30;74.40;;;;;;5073426;28;20028;-56
2023/04/07 03:14:23;;;;;;;8.90;7.15;;;8.30;74.50;;;;;;5070028;28;20036;-57
2023/04/07 03:16:49;;;;;;;8.15;6.53;;;8.30;74.50;;;;;;5081090;28;20039;-56
2023/04/07 03:19:15;;;;;;;9.98;8.05;;;8.30;74.50;;;;;;5083549;28;20107;-58
2023/04/07 03:21:41;;;;;;;8.40;6.88;;;8.30;74.60;;;;;;5078551;28;20119;-59
2023/04/07 03:24:07;;;;;;;7.68;6.88;;;8.30;74.60;;;;;;5069777;28;20054;-59
2023/04/07 03:26:33;;;;;;;8.95;6.45;;;8.30;74.80;;;;;;5064900;28;20032;-67
2023/04/07 03:28:59;;;;;;;8.10;6.82;;;8.30;74.80;;;;;;5074233;28;20431;-67
2023/04/07 03:31:25;;;;;;;6.88;5.90;;;8.30;74.80;;;;;;5077375;28;20045;-64
2023/04/07 03:33:51;;;;;;;6.53;5.60;;;8.30;74.90;;;;;;5078420;28;20087;-65
2023/04/07 03:36:17;;;;;;;6.60;5.63;;;8.30;74.80;;;;;;5071816;28;20029;-64
2023/04/07 03:38:43;;;;;;;6.15;5.20;;;8.30;75.00;;;;;;5060966;28;20047;-64
2023/04/07 03:41:09;;;;;;;6.10;5.32;;;8.30;75.10;;;;;;5065925;28;20040;-58
2023/04/07 03:43:34;;;;;;;7.13;5.70;;;8.30;75.30;;;;;;5070081;28;20032;-58
2023/04/07 03:46:00;;;;;;;6.15;5.13;;;8.40;75.40;;;;;;5074417;28;20036;-64
2023/04/07 03:48:26;;;;;;;7.50;5.32;;;8.40;75.50;;;;;;5077794;28;20102;-64
2023/04/07 03:50:51;;;;;;;6.22;5.07;;;8.40;75.60;;;;;;5069362;28;20131;-64
2023/04/07 03:53:18;;;;;;;6.10;5.05;;;8.40;75.70;;;;;;5075194;28;20020;-65
2023/04/07 03:55:44;;;;;;;6.40;5.30;;;8.40;75.70;;;;;;5077429;28;20035;-63
2023/04/07 03:58:10;;;;;;;6.68;5.22;;;8.50;75.90;;;;;;5075988;28;20028;-64
2023/04/07 04:00:35;;;;;;;7.03;5.22;;;8.50;75.90;;;;;;5068447;28;20029;-59
2023/04/07 04:03:01;;;;;;;7.78;5.18;;;8.50;76.00;;;;;;5072771;28;20119;-57
2023/04/07 04:05:27;;;;;;;6.32;5.72;;;8.60;76.10;;;;;;5073002;28;20093;-61
2023/04/07 04:07:52;;;;;;;8.52;5.82;;;8.60;76.00;;;;;;5084499;28;20047;-62
2023/04/07 04:10:19;;;;;;;7.47;5.70;;;8.70;76.10;;;;;;5074135;28;20095;-62
2023/04/07 04:12:46;;;;;;;7.15;5.95;;;8.70;76.20;;;;;;5069392;28;20024;-64
2023/04/07 04:15:12;;;;;;;7.82;6.43;;;8.80;76.30;;;;;;5072949;28;20059;-60
2023/04/07 04:17:38;;;;;;;8.10;6.38;;;8.80;76.10;;;;;;5071432;28;20044;-57
2023/04/07 04:20:04;;;;;;;7.90;6.40;;;8.90;76.10;;;;;;5067959;28;20029;-57
2023/04/07 04:22:30;;;;;;;6.82;5.82;;;9.00;76.00;;;;;;5070662;28;20037;-60
2023/04/07 04:24:55;;;;;;;7.40;5.85;;;9.00;75.90;;;;;;5072681;28;20045;-61
2023/04/07 04:27:21;;;;;;;8.32;6.20;;;9.10;75.90;;;;;;5076636;28;20051;-61
2023/04/07 04:29:47;;;;;;;6.60;5.43;;;9.20;75.90;;;;;;5081970;28;20031;-62
2023/04/07 04:32:13;;;;;;;8.07;5.72;;;9.20;75.70;;;;;;5071489;28;20453;-61
2023/04/07 04:34:40;;;;;;;6.63;5.40;;;9.20;75.60;;;;;;5066929;28;20056;-61
2023/04/07 04:37:06;;;;;;;6.55;5.40;;;9.30;75.70;;;;;;5068233;28;20024;-68
2023/04/07 04:39:32;;;;;;;8.18;5.65;;;9.40;75.70;;;;;;5072006;28;20035;-67
2023/04/07 04:41:58;;;;;;;6.80;5.57;;;9.50;75.70;;;;;;5066620;28;20032;-66
2023/04/07 04:44:23;;;;;;;7.82;5.93;;;9.60;75.80;;;;;;5072684;28;20057;-67
2023/04/07 04:46:49;;;;;;;6.47;5.40;;;9.70;75.80;;;;;;5077294;28;20442;-60
2023/04/07 04:49:15;;;;;;;7.15;5.53;;;9.90;75.90;;;;;;5072098;28;20424;-59
2023/04/07 04:51:41;;;;;;;7.43;5.88;;;10.10;76.00;;;;;;5065651;28;20025;-56
2023/04/07 04:54:07;;;;;;;7.03;5.07;;;10.40;75.70;;;;;;5071733;28;20803;-54
2023/04/07 04:56:33;;;;;;;7.38;5.53;;;10.80;75.30;;;;;;5071001;28;20040;-64
2023/04/07 04:58:58;;;;;;;6.10;5.18;;;11.10;74.50;;;;;;5077555;28;20040;-66
2023/04/07 05:01:24;;;;;;;6.80;4.97;;;11.40;73.80;;;;;;5071761;28;20111;-64
2023/04/07 05:03:50;;;;;;;5.70;5.07;;;11.60;73.40;;;;;;5068351;28;20466;-66
2023/04/07 05:06:16;;;;;;;6.40;5.18;;;11.80;73.40;;;;;;5069059;28;20033;-65
2023/04/07 05:08:42;;;;;;;6.82;5.55;;;12.30;73.50;;;;;;5065828;28;20044;-64
2023/04/07 05:11:07;;;;;;;5.28;4.32;;;12.80;73.00;;;;;;5071555;28;20021;-66
2023/04/07 05:13:33;;;;;;;6.55;5.03;;;13.40;71.80;;;;;;5067947;28;20040;-66
2023/04/07 05:16:00;;;;;;;6.68;5.10;;;13.80;70.20;;;;;;5071541;28;20036;-66
2023/04/07 05:18:25;;;;;;;6.85;5.10;;;14.20;69.10;;;;;;5075823;28;20028;-66
2023/04/07 05:20:51;;;;;;;6.15;5.15;;;14.40;68.40;;;;;;5069602;28;20036;-61
2023/04/07 05:23:17;;;;;;;6.35;4.45;;;14.60;68.20;;;;;;5070270;28;20474;-62
2023/04/07 05:25:42;;;;;;;6.57;4.63;;;14.90;68.30;;;;;;5072707;28;20039;-64
2023/04/07 05:28:08;;;;;;;6.03;4.40;;;15.40;67.60;;;;;;5074536;28;20028;-67
2023/04/07 05:30:34;;;;;;;5.13;3.88;;;15.80;66.00;;;;;;5070730;28;20105;-58
2023/04/07 05:32:59;;;;;;;5.65;4.05;;;16.00;64.80;;;;;;5069712;28;20033;-58
2023/04/07 05:35:25;;;;;;;5.53;3.50;;;16.10;64.40;;;;;;5064343;28;20046;-58
2023/04/07 05:37:51;;;;;;;3.40;3.08;;;16.10;63.80;;;;;;5058562;28;20097;-57
2023/04/07 05:40:17;;;;;;;4.55;3.28;;;16.30;63.50;;;;;;5067337;28;20025;-62
2023/04/07 05:42:42;;;;;;;5.55;3.38;;;16.40;63.30;;;;;;5035547;28;20076;-60
2023/04/07 05:45:09;;;;;;;3.60;3.03;;;16.50;62.90;;;;;;5067623;28;20036;-60
2023/04/07 05:47:34;;;;;;;3.28;2.72;;;16.60;62.40;;;;;;5063351;28;20059;-60
2023/04/07 05:50:00;;;;;;;3.30;2.63;;;16.50;61.50;;;;;;5064323;28;20518;-60
2023/04/07 05:52:26;;;;;;;3.38;2.90;;;16.40;60.90;;;;;;5069118;28;20029;-59
2023/04/07 05:54:52;;;;;;;2.90;2.63;;;16.20;60.60;;;;;;5051776;28;20039;-59
2023/04/07 05:57:17;;;;;;;3.72;2.75;;;16.00;60.60;;;;;;5061110;28;20050;-61
2023/04/07 05:59:43;;;;;;;3.08;2.78;;;15.70;60.70;;;;;;5063841;28;20123;-60
2023/04/07 06:02:09;;;;;;;3.92;3.13;;;15.30;60.80;;;;;;5046615;28;20024;-60
2023/04/07 06:04:35;;;;;;;3.40;3.10;;;15.00;60.80;;;;;;5070543;28;20046;-60
2023/04/07 06:07:01;;;;;;;3.40;2.92;;;14.80;61.10;;;;;;5072516;28;20043;-61
2023/04/07 06:09:27;;;;;;;4.35;3.13;;;14.50;61.50;;;;;;5066197;28;20036;-61
2023/04/07 06:11:53;;;;;;;4.15;3.50;;;14.20;61.70;;;;;;5072783;28;20039;-56
2023/04/07 06:14:18;;;;;;;3.83;3.35;;;13.90;62.80;;;;;;5055332;28;20791;-57
2023/04/07 06:16:44;;;;;;;4.88;3.45;;;13.80;62.50;;;;;;5051932;28;20115;-56
2023/04/07 06:19:10;;;;;;;2.80;2.60;;;13.60;62.80;;;;;;5055430;28;20076;-55
2023/04/07 06:21:36;;;;;;;4.82;3.10;;;13.50;62.80;;;;;;5058882;28;20127;-57
2023/04/07 06:24:01;;;;;;;3.83;3.30;;;13.40;63.00;;;;;;5062710;28;20044;-57
2023/04/07 06:26:27;;;;;;;4.13;3.60;;;13.30;63.10;;;;;;5066722;28;20027;-54
2023/04/07 06:28:53;;;;;;;5.20;3.97;;;13.30;63.20;;;;;;5060296;28;20040;-56
2023/04/07 06:31:18;;;;;;;5.55;3.72;;;13.20;64.00;;;;;;5064721;28;20368;-54
2023/04/07 06:33:44;;;;;;;4.47;3.97;;;13.20;63.30;;;;;;5064647;28;20443;-54
2023/04/07 06:36:11;;;;;;;4.35;3.78;;;13.10;63.40;;;;;;5069954;28;20588;-56
2023/04/07 06:38:37;;;;;;;4.85;3.75;;;13.10;63.60;;;;;;5070743;28;20066;-56
2023/04/07 06:41:03;;;;;;;5.10;3.95;;;13.00;63.70;;;;;;5059071;28;20067;-57
2023/04/07 06:43:29;;;;;;;4.80;3.60;;;12.90;63.80;;;;;;5059237;28;20048;-56
2023/04/07 06:45:55;;;;;;;4.30;3.40;;;12.90;63.80;;;;;;5064805;28;20058;-59
2023/04/07 06:48:21;;;;;;;4.88;3.45;;;12.90;63.70;;;;;;5063703;28;20040;-55
2023/04/07 06:50:50;;;;;;;4.30;3.47;;;12.90;63.60;;;;;;5069649;28;20040;-52
2023/04/07 06:53:16;;;;;;;5.00;3.88;;;12.90;63.70;;;;;;5070251;28;20036;-58
2023/04/07 06:55:41;;;;;;;4.90;3.80;;;12.90;63.70;;;;;;5059557;28;20078;-58
2023/04/07 06:58:07;;;;;;;4.57;3.17;;;12.80;64.00;;;;;;5059821;28;20032;-52
2023/04/07 07:00:34;;;;;;;3.83;3.20;;;12.80;64.20;;;;;;5055132;28;20125;-57
2023/04/07 07:03:00;;;;;;;2.70;2.50;;;12.80;64.00;;;;;;5057342;28;20082;-53
2023/04/07 07:05:26;;;;;;;3.47;2.75;;;12.80;63.90;;;;;;5056715;28;20124;-55
2023/04/07 07:07:52;;;;;;;2.88;2.58;;;12.90;63.70;;;;;;5054372;28;20464;-57
2023/04/07 07:10:19;;;;;;;2.92;2.63;;;12.90;63.50;;;;;;5048595;28;20036;-60
2023/04/07 07:12:45;;;;;;;3.20;2.90;;;13.00;63.50;;;;;;5044927;28;20067;-53
2023/04/07 07:15:10;;;;;;;2.95;2.65;;;13.00;63.30;;;;;;5055760;28;20131;-54
2023/04/07 07:17:36;;;;;;;3.20;2.80;;;13.10;63.10;;;;;;5062713;28;20060;-56
2023/04/07 07:20:02;;;;;;;2.83;2.60;;;13.20;62.80;;;;;;5054354;28;20494;-53
2023/04/07 07:22:28;;;;;;;2.55;2.35;;;13.10;62.80;;;;;;5057503;28;20588;-55
2023/04/07 07:24:53;;;;;;;2.67;2.47;;;13.10;62.80;;;;;;5050860;28;21175;-53
2023/04/07 07:27:19;;;;;;;2.53;2.33;;;13.00;63.00;;;;;;5056244;28;20038;-56
2023/04/07 07:29:45;;;;;;;2.70;2.50;;;12.90;63.20;;;;;;5069782;28;20070;-54
2023/04/07 07:32:10;;;;;;;2.55;2.35;;;12.80;63.30;;;;;;5057302;28;20145;-56
2023/04/07 07:34:36;;;;;;;2.60;2.40;;;12.80;63.40;;;;;;5056804;28;20090;-57
2023/04/07 07:37:01;;;;;;;2.13;2.00;;;12.80;63.50;;;;;;5049501;28;20071;-54
2023/04/07 07:39:28;;;;;;;1.90;1.80;;;12.80;63.70;;;;;;5049063;28;20123;-56
2023/04/07 07:41:54;;;;;;;2.20;2.10;;;12.80;63.70;;;;;;5034631;28;20033;-59
2023/04/07 07:44:21;;;;;;;1.90;1.80;;;12.80;63.30;;;;;;5054895;28;21393;-54
2023/04/07 07:46:47;;;;;;;2.20;2.00;;;12.80;63.10;;;;;;5049325;28;20036;-55
2023/04/07 07:49:13;;;;;;;2.20;2.10;;;12.70;63.00;;;;;;5055196;28;20040;-53
2023/04/07 07:51:39;;;;;;;1.83;1.73;;;12.70;63.10;;;;;;5051389;28;21463;-54
2023/04/07 07:54:05;;;;;;;1.70;1.60;;;12.60;62.90;;;;;;5046422;28;20750;-56
2023/04/07 07:56:30;;;;;;;2.20;2.00;;;12.60;62.90;;;;;;5053780;28;20032;-59
2023/04/07 07:58:56;;;;;;;2.00;1.90;;;12.50;62.90;;;;;;5032357;28;20028;-60
2023/04/07 08:01:22;;;;;;;2.35;1.95;;;12.50;62.90;;;;;;5045880;28;20156;-59
2023/04/07 08:03:47;;;;;;;2.08;1.88;;;12.40;63.00;;;;;;5056919;28;20029;-57
2023/04/07 08:06:13;;;;;;;1.90;1.77;;;12.40;63.10;;;;;;5055115;28;20447;-56
2023/04/07 08:08:39;;;;;;;1.60;1.50;;;12.40;62.90;;;;;;5050955;28;20047;-56
2023/04/07 08:11:04;;;;;;;1.92;1.83;;;12.40;62.90;;;;;;5055198;28;20059;-54
2023/04/07 08:13:30;;;;;;;1.92;1.83;;;12.40;62.90;;;;;;5053234;28;20029;-56
2023/04/07 08:15:56;;;;;;;1.63;1.52;;;12.30;62.80;;;;;;5048584;28;20079;-58
2023/04/07 08:18:22;;;;;;;2.03;1.92;;;12.20;62.80;;;;;;5051832;28;20044;-59
2023/04/07 08:20:47;;;;;;;2.28;1.95;;;12.20;62.70;;;;;;5046553;28;20570;-56
2023/04/07 08:23:13;;;;;;;2.20;2.10;;;12.20;62.50;;;;;;5053375;28;20032;-53
2023/04/07 08:25:39;;;;;;;2.25;2.05;;;12.20;62.40;;;;;;5042799;28;20089;-59
2023/04/07 08:28:05;;;;;;;2.20;2.03;;;12.20;62.40;;;;;;5052465;28;20024;-52
2023/04/07 08:30:31;;;;;;;2.45;2.25;;;12.10;62.50;;;;;;5047538;28;20043;-61
2023/04/07 08:32:56;;;;;;;2.25;2.05;;;12.10;62.70;;;;;;5046680;28;20417;-57
2023/04/07 08:35:22;;;;;;;2.33;2.13;;;12.00;62.90;;;;;;5050577;28;20177;-54
2023/04/07 08:37:49;;;;;;;2.40;2.15;;;12.00;63.00;;;;;;5051580;28;20072;-53
2023/04/07 08:40:15;;;;;;;2.35;2.15;;;11.90;63.40;;;;;;5052110;28;20582;-54
2023/04/07 08:42:45;;;;;;;2.95;2.42;;;11.90;63.30;;;;;;5050234;28;20049;-56
2023/04/07 08:45:12;;;;;;;3.00;2.70;;;11.80;63.60;;;;;;5046062;28;20083;-57
2023/04/07 08:47:40;;;;;;;2.75;2.53;;;11.80;63.70;;;;;;5049803;28;20041;-57
2023/04/07 08:50:10;;;;;;;3.17;2.80;;;11.80;63.90;;;;;;5055890;28;20031;-56
2023/04/07 08:52:49;;;;;;;4.03;3.17;;;11.80;63.70;;;;;;5046018;28;20143;-54
2023/04/07 08:55:15;;;;;;;3.20;2.90;;;11.70;63.80;;;;;;5047494;28;20119;-59
2023/04/07 08:57:41;;;;;;;3.33;3.03;;;11.70;63.80;;;;;;5051884;28;20032;-55
2023/04/07 09:00:09;;;;;;;3.05;2.75;;;11.70;64.00;;;;;;5048881;28;20037;-55
2023/04/07 09:02:38;;;;;;;3.20;2.90;;;11.60;63.90;;;;;;5048221;28;20648;-58
2023/04/07 09:05:06;;;;;;;3.15;2.70;;;11.60;63.90;;;;;;5040516;28;20037;-57
2023/04/07 09:07:33;;;;;;;3.13;2.83;;;11.60;64.10;;;;;;5052023;28;20029;-54
2023/04/07 09:09:59;;;;;;;2.67;2.47;;;11.60;64.90;;;;;;5045535;28;20031;-58
2023/04/07 09:12:26;;;;;;;3.28;2.97;;;11.60;64.20;;;;;;5036425;28;20450;-56
2023/04/07 09:14:52;;;;;;;3.50;2.78;;;11.50;64.20;;;;;;5040004;28;20519;-57
2023/04/07 09:17:18;;;;;;;3.67;3.05;;;11.50;64.40;;;;;;5038465;28;20032;-59
2023/04/07 09:19:44;;;;;;;4.05;3.10;;;11.50;64.30;;;;;;5038303;28;20039;-57
2023/04/07 09:22:13;;;;;;;3.35;2.97;;;11.50;64.30;;;;;;5041721;28;20038;-55
2023/04/07 09:24:39;;;;;;;3.60;3.20;;;11.50;64.30;;;;;;5043094;28;20049;-56
2023/04/07 09:27:16;;;;;;;3.15;2.88;;;11.50;64.30;;;;;;5048577;28;20036;-58
2023/04/07 09:29:43;;;;;;;3.90;2.97;;;11.50;64.30;;;;;;5042071;28;20047;-60
2023/04/07 09:32:09;;;;;;;3.47;2.90;;;11.50;64.30;;;;;;5040749;28;20140;-59
2023/04/07 09:34:38;;;;;;;3.60;3.10;;;11.50;64.20;;;;;;5039575;28;20040;-54
2023/04/07 09:37:08;;;;;;;3.75;3.00;;;11.40;64.30;;;;;;5048531;28;20536;-55
2023/04/07 09:39:51;;;;;;;3.17;2.95;;;11.40;64.50;;;;;;5035406;28;20040;-54
2023/04/07 09:42:17;;;;;;;4.03;3.28;;;11.40;64.40;;;;;;5044162;28;20444;-60
2023/04/07 09:44:43;;;;;;;4.10;3.30;;;11.40;64.60;;;;;;5039586;28;20059;-55
2023/04/07 09:47:09;;;;;;;3.53;3.22;;;11.40;64.70;;;;;;5044220;28;20159;-60
2023/04/07 09:49:49;;;;;;;3.50;3.20;;;11.40;64.80;;;;;;5045168;28;20049;-57
2023/04/07 09:52:16;;;;;;;4.43;3.35;;;11.40;64.70;;;;;;5050521;28;20024;-55
2023/04/07 09:54:42;;;;;;;3.92;3.25;;;11.30;64.50;;;;;;5040057;28;20107;-60
2023/04/07 09:57:10;;;;;;;3.67;3.00;;;11.30;64.60;;;;;;5048204;28;20123;-60
2023/04/07 09:59:38;;;;;;;3.25;2.95;;;11.30;64.60;;;;;;5051931;28;20631;-60
2023/04/07 10:02:05;;;;;;;3.45;2.97;;;11.30;64.70;;;;;;5048538;28;20029;-57
2023/04/07 10:04:31;;;;;;;3.97;3.08;;;11.30;64.80;;;;;;5041318;28;20587;-61
2023/04/07 10:06:59;;;;;;;4.10;3.42;;;11.20;64.80;;;;;;5046675;28;20029;-58
2023/04/07 10:09:28;;;;;;;4.25;3.22;;;11.30;65.10;;;;;;5047266;28;20119;-55
2023/04/07 10:11:56;;;;;;;3.85;3.15;;;11.30;65.00;;;;;;5057268;28;20039;-50
2023/04/07 10:14:25;;;;;;;3.30;2.83;;;11.30;65.10;;;;;;5054167;28;20079;-59
2023/04/07 10:16:51;;;;;;;3.28;2.97;;;11.30;65.30;;;;;;5048626;28;20029;-56
2023/04/07 10:19:18;;;;;;;3.50;3.00;;;11.30;65.40;;;;;;5050131;28;20042;-59
2023/04/07 10:21:45;;;;;;;3.28;2.97;;;11.30;65.60;;;;;;5049491;28;20035;-52
2023/04/07 10:24:46;;;;;;;3.28;2.97;;;11.30;65.40;;;;;;5051244;28;20067;-58
2023/04/07 10:27:18;;;;;;;3.13;2.83;;;11.40;65.50;;;;;;5044917;28;20029;-57
2023/04/07 10:29:48;;;;;;;3.63;3.10;;;11.40;65.60;;;;;;5050424;28;20033;-56
2023/04/07 10:32:14;;;;;;;2.65;2.38;;;11.40;65.60;;;;;;5049468;28;20095;-58
2023/04/07 10:34:56;;;;;;;2.88;2.58;;;11.40;65.80;;;;;;5045192;28;21291;-51
2023/04/07 10:37:23;;;;;;;3.45;2.65;;;11.50;65.80;;;;;;5054209;28;20118;-56
2023/04/07 10:40:10;;;;;;;2.97;2.70;;;11.50;65.80;;;;;;5064213;28;20543;-53
2023/04/07 10:42:38;;;;;;;3.85;3.08;;;11.50;65.70;;;;;;5017667;28;20525;-57
2023/04/07 10:45:08;;;;;;;2.67;2.47;;;11.60;65.70;;;;;;5050886;28;20059;-60
2023/04/07 10:47:54;;;;;;;2.80;2.60;;;11.60;65.80;;;;;;5044328;28;20370;-52
2023/04/07 10:50:22;;;;;;;3.10;2.60;;;11.60;65.90;;;;;;5045007;28;20078;-54
2023/04/07 10:53:03;;;;;;;3.75;2.85;;;11.60;65.90;;;;;;5045488;28;20064;-57
2023/04/07 10:55:36;;;;;;;2.70;2.50;;;11.70;66.10;;;;;;5054166;28;20432;-57
2023/04/07 10:58:21;;;;;;;2.95;2.75;;;11.70;66.20;;;;;;5051271;28;20065;-57
2023/04/07 11:00:56;;;;;;;2.55;2.35;;;11.70;66.20;;;;;;5047457;28;20091;-52
2023/04/07 11:03:23;;;;;;;3.15;2.85;;;11.70;66.20;;;;;;5046250;28;20036;-60
2023/04/07 11:05:49;;;;;;;2.60;2.40;;;11.70;66.20;;;;;;5054528;28;20174;-53
2023/04/07 11:08:15;;;;;;;2.60;2.40;;;11.70;66.20;;;;;;5044343;28;20043;-53
2023/04/07 11:10:46;;;;;;;2.80;2.60;;;11.70;66.20;;;;;;5054746;28;20033;-56
2023/04/07 11:13:12;;;;;;;2.60;2.40;;;11.80;66.30;;;;;;5046265;28;20742;-57
2023/04/07 11:15:38;;;;;;;3.00;2.70;;;11.80;66.30;;;;;;5045086;28;20032;-59
2023/04/07 11:18:18;;;;;;;2.42;2.22;;;11.80;66.30;;;;;;5048631;28;20721;-56
2023/04/07 11:20:51;;;;;;;2.58;2.38;;;11.80;66.20;;;;;;5050420;28;20036;-55
2023/04/07 11:23:18;;;;;;;2.65;2.45;;;11.80;66.50;;;;;;5047658;28;20036;-53
2023/04/07 11:25:45;;;;;;;2.63;2.42;;;11.90;66.20;;;;;;5051399;28;20139;-57
2023/04/07 11:28:12;;;;;;;2.47;2.28;;;11.90;66.10;;;;;;5048842;28;20144;-58
2023/04/07 11:30:44;;;;;;;2.58;2.38;;;11.90;66.30;;;;;;5045207;28;20077;-56
2023/04/07 11:33:14;;;;;;;2.65;2.35;;;11.90;66.20;;;;;;5057525;28;20036;-54
2023/04/07 11:35:52;;;;;;;2.75;2.50;;;12.00;66.30;;;;;;5050884;28;20044;-56
2023/04/07 11:38:18;;;;;;;2.72;2.35;;;12.00;66.10;;;;;;5056715;28;20037;-59
2023/04/07 11:40:45;;;;;;;2.70;2.45;;;12.10;66.30;;;;;;5051855;28;20747;-58
2023/04/07 11:43:24;;;;;;;2.40;2.20;;;12.20;66.30;;;;;;5051102;28;20037;-56
2023/04/07 11:46:06;;;;;;;2.47;2.03;;;12.20;66.20;;;;;;5051983;28;20444;-54
2023/04/07 11:48:33;;;;;;;2.55;2.35;;;12.30;65.90;;;;;;5046963;28;20037;-56
2023/04/07 11:51:00;;;;;;;2.55;2.35;;;12.40;66.00;;;;;;5052367;28;20543;-56
2023/04/07 11:53:33;;;;;;;2.75;2.50;;;12.50;65.80;;;;;;5049747;28;21290;-56
2023/04/07 11:56:17;;;;;;;2.40;2.20;;;12.50;65.70;;;;;;5036846;28;20414;-58
2023/04/07 11:58:47;;;;;;;3.33;2.40;;;12.60;65.50;;;;;;5053168;28;20551;-57
2023/04/07 12:01:13;;;;;;;2.63;2.42;;;12.60;66.20;;;;;;5052450;28;20077;-60
2023/04/07 12:03:58;;;;;;;2.47;2.28;;;12.70;65.50;;;;;;5057835;28;20736;-57
2023/04/07 12:06:37;;;;;;;2.55;2.35;;;12.80;65.50;;;;;;5047732;28;20032;-60
2023/04/07 12:09:04;;;;;;;2.55;2.35;;;12.90;65.50;;;;;;5051059;28;20036;-61
2023/04/07 12:11:31;;;;;;;2.50;2.30;;;12.90;65.50;;;;;;5049044;28;20037;-58
2023/04/07 12:13:57;;;;;;;2.50;2.30;;;13.00;65.50;;;;;;5058734;28;20021;-56
2023/04/07 12:16:23;;;;;;;2.25;2.05;;;13.10;65.30;;;;;;5051591;28;20407;-54
2023/04/07 12:18:52;;;;;;;2.75;2.55;;;13.20;65.30;;;;;;5059909;28;20361;-53
2023/04/07 12:21:18;;;;;;;2.50;2.30;;;13.30;65.20;;;;;;5049712;28;20104;-56
2023/04/07 12:23:46;;;;;;;2.53;2.33;;;13.40;65.70;;;;;;5046059;28;20061;-58
2023/04/07 12:26:12;;;;;;;2.33;2.13;;;13.40;64.80;;;;;;5044119;28;20024;-52
2023/04/07 12:28:38;;;;;;;2.28;2.10;;;13.50;64.80;;;;;;5048507;28;20689;-53
2023/04/07 12:31:04;;;;;;;2.38;2.17;;;13.50;64.70;;;;;;5048331;28;20094;-58
2023/04/07 12:33:29;;;;;;;2.33;2.00;;;13.60;64.70;;;;;;5054335;28;20371;-57
2023/04/07 12:35:57;;;;;;;2.30;2.15;;;13.60;65.30;;;;;;5051678;28;20039;-54
2023/04/07 12:38:23;;;;;;;2.42;2.22;;;13.70;64.70;;;;;;5046736;28;20827;-58
2023/04/07 12:40:48;;;;;;;2.63;2.33;;;13.70;64.60;;;;;;5048875;28;20032;-57
2023/04/07 12:43:14;;;;;;;2.58;2.38;;;13.80;64.40;;;;;;5043510;28;20039;-57
2023/04/07 12:45:40;;;;;;;2.60;2.33;;;13.90;64.40;;;;;;5047802;28;20032;-54
2023/04/07 12:48:06;;;;;;;2.40;2.20;;;13.90;64.40;;;;;;5043465;28;20060;-58
2023/04/07 12:50:32;;;;;;;2.30;2.10;;;13.90;64.50;;;;;;5052262;28;20674;-59
2023/04/07 12:53:04;;;;;;;2.30;2.10;;;13.90;64.40;;;;;;5048578;28;20025;-56